Esadore Lake, Wisconsin
Current Conditions -  °F | °C
As of 4:15 AM on Tuesday 27 Jan 2015 (Local Time) from KMDZ Reporting Station
Haze Haze  
Wind Chill: 21°   Ceiling: 200
Heat Index: 21°   Visibility: 1.7mi
Dew Point: 19°   Wind: 3mph
Humidity: 95%   Direction: 350°N
Pressure: 30.03"   Gusts: NA
Location:  45.2044°N, 90.4212°W
Report Text: KMDZ 271015Z AUTO 35003KT 1 3/4SM BR OVC002 M06/M07 A3003 RMK AO2 T10631070
Loading
Personal Weather Stations






























Interactive Weather Map New forecast layout! Learn more

10-Day Weather Forecast

Advertisements
Track Severe Weather on mobile